Oud-Heverlee, Belgium
Current Conditions -  °F | °C
As of 3:50 PM on Thursday 30 Oct 2014 (Local Time) from EBBR Reporting Station
Clear Clear  
Wind Chill: 63°   Ceiling: Unl
Heat Index: 63°   Visibility: 6mi
Dew Point: 57°   Wind: 5mph
Humidity: 82%   Direction: 210°SSW
Pressure: 30.18"   Gusts: NA
Location:  50.84°N, 4.66°E
Report Text: EBBR 301450Z 21004KT CAVOK 17/14 Q1022 NOSIG
Loading
Personal Weather Stations






























Interactive Weather Map New forecast layout! Learn more

10-Day Weather Forecast

Advertisements
Track Severe Weather on mobile